Time;durP1;ratioP1;P1;durP2;ratioP2;P2;SDS_P1;SDS_P2;PMS_P1;PMS_P2;Temp;Humidity;BMP_temperature;BMP_pressure;BME280_temperature;BME280_humidity;BME280_pressure;Samples;Min_cycle;Max_cycle;Signal;HPM_P1;HPM_P2
2021/07/18 00:02:04;;;;;;;8.05;3.28;;;;;;;18.51;83.35;101162.31;5006076;28;20077;-82
2021/07/18 00:04:32;;;;;;;9.68;3.70;;;;;;;18.41;84.21;101156.91;5000128;28;20362;-81
2021/07/18 00:07:00;;;;;;;6.93;3.28;;;;;;;18.43;84.21;101147.81;5002707;28;20150;-82
2021/07/18 00:09:27;;;;;;;12.30;3.63;;;;;;;18.44;84.19;101154.81;4981103;28;20076;-84
2021/07/18 00:11:54;;;;;;;6.95;3.15;;;;;;;18.55;83.60;101163.75;5015802;28;20696;-83
2021/07/18 00:14:22;;;;;;;8.20;3.20;;;;;;;18.54;83.27;101167.38;5002335;28;20124;-81
2021/07/18 00:16:49;;;;;;;8.38;3.33;;;;;;;18.42;83.94;101164.78;5004453;28;20527;-82
2021/07/18 00:19:16;;;;;;;13.02;3.67;;;;;;;18.39;83.87;101161.53;4979625;28;20042;-82
2021/07/18 00:21:43;;;;;;;9.27;4.25;;;;;;;18.34;85.00;101161.06;4987540;28;20041;-82
2021/07/18 00:24:13;;;;;;;8.20;3.40;;;;;;;18.44;84.09;101157.50;5009806;28;20187;-83
2021/07/18 00:26:40;;;;;;;9.10;3.35;;;;;;;18.44;83.86;101156.66;5011139;28;20144;-81
2021/07/18 00:29:08;;;;;;;8.38;3.50;;;;;;;18.50;83.85;101161.47;4995107;28;20091;-81
2021/07/18 00:31:36;;;;;;;12.82;3.65;;;;;;;18.39;84.09;101159.69;4999544;28;20037;-81
2021/07/18 00:34:04;;;;;;;15.38;4.22;;;;;;;18.34;84.00;101158.41;4991527;28;20556;-83
2021/07/18 00:36:31;;;;;;;9.90;3.28;;;;;;;18.33;84.67;101160.22;5011331;28;20041;-80
2021/07/18 00:38:58;;;;;;;10.07;3.15;;;;;;;18.30;84.28;101155.13;4990548;28;20098;-81
2021/07/18 00:41:25;;;;;;;6.28;3.60;;;;;;;18.30;84.44;101156.97;5016430;28;20124;-83
2021/07/18 00:43:53;;;;;;;8.23;2.70;;;;;;;18.30;84.92;101151.63;5015635;28;20544;-82
2021/07/18 00:46:20;;;;;;;13.52;4.20;;;;;;;18.29;84.31;101153.44;5000468;28;20144;-82
2021/07/18 00:48:47;;;;;;;8.00;3.40;;;;;;;18.28;84.46;101161.56;5005199;28;20052;-83
2021/07/18 00:51:15;;;;;;;5.00;3.13;;;;;;;18.19;85.12;101155.16;5014617;28;20141;-82
2021/07/18 00:53:42;;;;;;;11.52;3.42;;;;;;;18.11;85.22;101153.16;4993647;28;20132;-80
2021/07/18 00:56:10;;;;;;;6.68;3.17;;;;;;;18.14;85.14;101150.22;5015249;28;20080;-81
2021/07/18 00:58:37;;;;;;;16.40;3.95;;;;;;;18.20;84.86;101152.38;4990886;28;20108;-81
2021/07/18 01:01:05;;;;;;;10.80;3.35;;;;;;;18.12;85.39;101154.84;4993774;28;20132;-82
2021/07/18 01:03:32;;;;;;;11.05;4.97;;;;;;;18.02;85.84;101156.56;5005000;28;20480;-80
2021/07/18 01:05:59;;;;;;;7.40;3.22;;;;;;;18.15;85.00;101159.09;5008151;28;20065;-82
2021/07/18 01:08:27;;;;;;;8.80;3.55;;;;;;;18.08;85.34;101150.72;4992901;28;20042;-83
2021/07/18 01:10:54;;;;;;;7.75;3.58;;;;;;;18.01;85.49;101154.00;5012842;28;20053;-82
2021/07/18 01:13:21;;;;;;;10.57;3.45;;;;;;;18.01;86.00;101159.34;5004660;28;20033;-82
2021/07/18 01:15:49;;;;;;;13.45;3.70;;;;;;;18.06;85.57;101155.34;5004241;28;20140;-81
2021/07/18 01:18:16;;;;;;;8.45;3.70;;;;;;;18.03;85.68;101154.75;5004695;28;20104;-82
2021/07/18 01:20:44;;;;;;;13.85;5.13;;;;;;;17.93;86.36;101152.84;5019969;28;20134;-85
2021/07/18 01:23:11;;;;;;;11.63;4.07;;;;;;;17.95;86.45;101155.38;5019691;28;20042;-81
2021/07/18 01:25:39;;;;;;;8.88;3.72;;;;;;;17.92;86.46;101153.81;5007610;28;20473;-82
2021/07/18 01:28:12;;;;;;;8.80;3.30;;;;;;;17.92;86.47;101155.59;5001533;28;20133;-81
2021/07/18 01:30:40;;;;;;;6.55;3.47;;;;;;;17.92;86.54;101152.94;4982805;28;20045;-81
2021/07/18 01:33:07;;;;;;;10.93;3.63;;;;;;;17.90;86.32;101165.56;4981376;28;20072;-80
2021/07/18 01:35:35;;;;;;;10.07;3.45;;;;;;;17.90;86.42;101158.41;5029662;28;20110;-82
2021/07/18 01:38:05;;;;;;;9.40;3.58;;;;;;;17.84;86.45;101152.75;4983795;28;20081;-81
2021/07/18 01:40:33;;;;;;;14.95;3.65;;;;;;;17.80;86.66;101151.28;5021639;28;20055;-84
2021/07/18 01:43:00;;;;;;;8.15;4.20;;;;;;;17.79;86.92;101158.44;4998674;28;20309;-82
2021/07/18 01:45:27;;;;;;;7.13;3.63;;;;;;;17.80;86.74;101156.63;5008140;28;20047;-80
2021/07/18 01:47:55;;;;;;;7.53;3.17;;;;;;;17.70;87.33;101167.97;5006572;28;20049;-79
2021/07/18 01:50:23;;;;;;;11.77;3.33;;;;;;;17.64;87.81;101175.59;5038795;28;20054;-80
2021/07/18 01:52:53;;;;;;;12.50;3.95;;;;;;;17.62;88.13;101175.72;5005160;28;20069;-80
2021/07/18 01:55:22;;;;;;;8.95;3.70;;;;;;;17.65;87.83;101171.97;5017815;28;20034;-82
2021/07/18 01:57:49;;;;;;;11.60;3.88;;;;;;;17.71;87.24;101166.16;5035558;28;20087;-82
2021/07/18 02:00:17;;;;;;;9.07;3.22;;;;;;;17.69;87.52;101168.94;5019750;28;20132;-83
2021/07/18 02:02:45;;;;;;;11.23;3.28;;;;;;;17.58;88.19;101174.28;5005516;28;20049;-80
2021/07/18 02:05:13;;;;;;;8.73;2.88;;;;;;;17.57;88.13;101174.41;5022032;28;20496;-82
2021/07/18 02:07:41;;;;;;;13.18;3.55;;;;;;;17.57;88.14;101172.59;5008537;28;20366;-82
2021/07/18 02:10:09;;;;;;;9.05;3.17;;;;;;;17.49;88.72;101168.84;5025656;28;20069;-83
2021/07/18 02:12:37;;;;;;;7.65;3.40;;;;;;;17.43;89.18;101164.88;5005501;28;20072;-82
2021/07/18 02:15:09;;;;;;;8.73;3.33;;;;;;;17.36;89.35;101159.16;5016238;28;20428;-81
2021/07/18 02:17:37;;;;;;;9.05;2.78;;;;;;;17.43;88.88;101162.19;5000070;28;20050;-82
2021/07/18 02:20:11;;;;;;;8.77;4.80;;;;;;;17.33;89.57;101161.22;5013984;28;20149;-83
2021/07/18 02:22:56;;;;;;;9.38;4.10;;;;;;;17.38;88.73;101165.22;4984654;28;20045;-82
2021/07/18 02:25:25;;;;;;;9.43;3.70;;;;;;;17.33;89.38;101172.69;5010724;28;20050;-81
2021/07/18 02:27:54;;;;;;;7.82;2.63;;;;;;;17.25;90.02;101161.84;4986936;28;20619;-81
2021/07/18 02:30:26;;;;;;;10.57;3.90;;;;;;;17.19;90.30;101159.63;4990111;28;20076;-81
2021/07/18 02:32:55;;;;;;;4.85;3.03;;;;;;;17.21;90.24;101160.38;5030026;28;20366;-80
2021/07/18 02:35:24;;;;;;;4.80;2.85;;;;;;;17.14;90.56;101164.47;5030872;28;20061;-83
2021/07/18 02:37:51;;;;;;;8.77;3.67;;;;;;;17.10;90.93;101160.34;5003609;28;20037;-82
2021/07/18 02:40:19;;;;;;;8.52;4.20;;;;;;;17.08;91.12;101155.16;5035880;28;20053;-82
2021/07/18 02:42:47;;;;;;;8.88;4.00;;;;;;;17.11;90.49;101162.91;5000419;28;20123;-83
2021/07/18 02:45:17;;;;;;;8.07;3.65;;;;;;;17.08;90.77;101155.16;5040529;28;20063;-81
2021/07/18 02:47:44;;;;;;;10.57;3.38;;;;;;;17.04;91.13;101159.03;5011142;28;20124;-82
2021/07/18 02:50:14;;;;;;;8.20;3.80;;;;;;;17.03;91.46;101162.66;5012047;28;20103;-80
2021/07/18 02:52:41;;;;;;;10.05;4.28;;;;;;;16.97;91.53;101157.78;5021865;28;20428;-82
2021/07/18 02:55:09;;;;;;;9.52;4.15;;;;;;;16.95;91.49;101157.91;5021037;28;20056;-82
2021/07/18 02:57:36;;;;;;;10.15;4.03;;;;;;;16.82;92.22;101151.84;5030421;28;20217;-80
2021/07/18 03:00:07;;;;;;;6.00;3.70;;;;;;;16.83;92.32;101142.06;5010176;28;20153;-82
2021/07/18 03:02:34;;;;;;;9.25;3.50;;;;;;;16.90;91.96;101135.31;5014658;28;20143;-80
2021/07/18 03:05:03;;;;;;;8.35;4.18;;;;;;;16.92;91.98;101136.03;5027315;28;20050;-82
2021/07/18 03:07:31;;;;;;;7.90;3.90;;;;;;;17.05;91.54;101142.09;5033221;28;20571;-82
2021/07/18 03:09:58;;;;;;;7.65;3.83;;;;;;;17.00;91.24;101141.59;5024786;28;20064;-82
2021/07/18 03:12:26;;;;;;;11.90;4.40;;;;;;;17.03;91.46;101127.25;5035511;28;20064;-80
2021/07/18 03:14:53;;;;;;;12.77;4.07;;;;;;;17.00;91.86;101138.94;4999633;28;20117;-81
2021/07/18 03:17:20;;;;;;;8.73;3.38;;;;;;;17.01;91.97;101139.78;5026755;28;20062;-83
2021/07/18 03:19:47;;;;;;;17.00;3.85;;;;;;;16.96;91.95;101145.47;4997970;28;20492;-81
2021/07/18 03:22:14;;;;;;;7.18;4.13;;;;;;;17.01;92.03;101142.44;5032963;28;20543;-80
2021/07/18 03:24:42;;;;;;;11.13;4.22;;;;;;;17.05;91.78;101143.91;5020187;28;20119;-82
2021/07/18 03:27:09;;;;;;;14.60;4.43;;;;;;;16.96;92.23;101140.16;5016317;28;20046;-82
2021/07/18 03:29:36;;;;;;;9.57;4.30;;;;;;;16.98;92.93;101140.91;5022234;28;20137;-84
2021/07/18 03:32:04;;;;;;;11.13;4.82;;;;;;;17.10;92.23;101137.25;5004798;28;20174;-82
2021/07/18 03:34:32;;;;;;;11.05;3.72;;;;;;;17.05;92.57;101143.91;5006487;28;20076;-82
2021/07/18 03:36:59;;;;;;;12.88;4.40;;;;;;;17.09;92.49;101140.88;5006755;28;20048;-81
2021/07/18 03:39:26;;;;;;;12.52;3.80;;;;;;;17.12;92.94;101137.16;5001411;28;20029;-81
2021/07/18 03:41:53;;;;;;;11.65;4.68;;;;;;;17.09;92.70;101143.53;5009696;28;20141;-82
2021/07/18 03:44:20;;;;;;;12.32;3.78;;;;;;;17.04;93.51;101145.72;5026039;28;20053;-82
2021/07/18 03:46:48;;;;;;;6.38;3.95;;;;;;;16.99;94.58;101144.41;5004950;28;20042;-83
2021/07/18 03:49:16;;;;;;;12.75;3.30;;;;;;;17.07;94.00;101142.00;4993770;28;20052;-80
2021/07/18 03:51:43;;;;;;;4.80;3.35;;;;;;;17.18;93.47;101150.81;5014586;28;20453;-81
2021/07/18 03:54:10;;;;;;;10.43;3.60;;;;;;;17.24;93.37;101144.16;5009095;28;20064;-82
2021/07/18 03:56:38;;;;;;;9.73;3.30;;;;;;;17.23;93.11;101142.47;5017603;28;20925;-82
2021/07/18 03:59:05;;;;;;;6.28;3.60;;;;;;;17.25;93.37;101150.34;5009918;28;20057;-81
2021/07/18 04:01:32;;;;;;;8.80;3.55;;;;;;;17.30;92.92;101154.34;5016352;28;20051;-81
2021/07/18 04:03:59;;;;;;;13.85;3.60;;;;;;;17.37;92.67;101155.53;5021707;28;20077;-80
2021/07/18 04:06:27;;;;;;;9.23;3.85;;;;;;;17.47;92.37;101155.63;5020599;28;20433;-83
2021/07/18 04:08:54;;;;;;;9.57;3.97;;;;;;;17.46;92.93;101151.28;5010951;28;20081;-81
2021/07/18 04:11:21;;;;;;;14.93;4.18;;;;;;;17.36;92.75;101156.50;5032704;28;20076;-84
2021/07/18 04:13:48;;;;;;;7.85;3.55;;;;;;;17.51;92.14;101154.44;5005519;28;20067;-83
2021/07/18 04:16:16;;;;;;;9.20;3.75;;;;;;;17.51;92.07;101153.59;4995039;28;20532;-82
2021/07/18 04:18:43;;;;;;;9.05;3.67;;;;;;;17.55;92.32;101163.03;5010602;28;20498;-84
2021/07/18 04:21:10;;;;;;;11.15;3.63;;;;;;;17.53;92.66;101160.50;4996644;28;20033;-83
2021/07/18 04:23:37;;;;;;;11.30;4.13;;;;;;;17.71;91.86;101164.34;5000876;28;20041;-81
2021/07/18 04:26:07;;;;;;;7.88;3.28;;;;;;;17.82;90.96;101168.81;5013776;28;20064;-81
2021/07/18 04:28:35;;;;;;;8.50;3.63;;;;;;;17.89;90.49;101171.84;5000052;28;20352;-80
2021/07/18 04:31:02;;;;;;;8.60;3.15;;;;;;;18.09;89.85;101180.88;4999712;28;20108;-83
2021/07/18 04:33:29;;;;;;;5.30;2.97;;;;;;;18.63;87.61;101175.44;5004741;28;20139;-83
2021/07/18 04:35:56;;;;;;;5.72;2.95;;;;;;;19.76;82.46;101182.72;4996171;28;20050;-80
2021/07/18 04:38:24;;;;;;;10.25;3.40;;;;;;;21.24;74.75;101180.59;5009323;28;20550;-82
2021/07/18 04:40:51;;;;;;;8.10;2.45;;;;;;;22.29;67.97;101173.16;5018564;28;20112;-81
2021/07/18 04:43:18;;;;;;;6.55;2.72;;;;;;;23.16;64.98;101173.22;5030231;28;20365;-82
2021/07/18 04:45:45;;;;;;;6.85;2.25;;;;;;;23.05;63.63;101172.63;4995754;28;20384;-84
2021/07/18 04:48:13;;;;;;;5.93;2.20;;;;;;;23.62;62.12;101173.78;4997398;28;20053;-82
2021/07/18 04:50:40;;;;;;;7.82;2.17;;;;;;;24.56;58.31;101161.91;5010162;28;20070;-83
2021/07/18 04:53:07;;;;;;;7.13;2.40;;;;;;;24.05;60.26;101169.25;5015687;28;20496;-82
2021/07/18 04:55:34;;;;;;;6.13;2.58;;;;;;;23.46;61.61;101171.88;5038826;28;20079;-83
2021/07/18 04:58:03;;;;;;;9.82;2.78;;;;;;;24.13;59.53;101171.91;4999507;28;20048;-80
2021/07/18 05:00:30;;;;;;;4.38;2.53;;;;;;;24.41;58.22;101172.50;5007902;28;20092;-84
2021/07/18 05:02:57;;;;;;;5.43;2.20;;;;;;;25.44;54.84;101175.41;4997971;28;20045;-83
2021/07/18 05:05:24;;;;;;;6.65;2.30;;;;;;;26.26;53.17;101169.63;5011250;28;20142;-82
2021/07/18 05:07:59;;;;;;;7.97;2.85;;;;;;;26.56;51.82;101172.44;4994187;28;20136;-82
2021/07/18 05:10:27;;;;;;;9.45;2.70;;;;;;;27.17;49.53;101173.25;4997752;28;20052;-83
2021/07/18 05:12:55;;;;;;;7.75;2.78;;;;;;;26.25;51.72;101186.81;5036503;28;20099;-81
2021/07/18 05:15:24;;;;;;;8.77;2.35;;;;;;;27.29;49.28;101182.56;4998104;28;20072;-82
2021/07/18 05:17:52;;;;;;;6.75;2.35;;;;;;;28.37;46.59;101187.25;5029482;28;20049;-83
2021/07/18 05:20:22;;;;;;;4.68;2.20;;;;;;;28.66;45.27;101185.41;4995287;28;20073;-81
2021/07/18 05:22:50;;;;;;;5.95;2.38;;;;;;;28.84;45.20;101174.09;5027128;28;20092;-82
2021/07/18 05:25:18;;;;;;;8.90;2.20;;;;;;;28.15;46.74;101170.13;4997514;28;20042;-81
2021/07/18 05:27:45;;;;;;;6.72;2.35;;;;;;;28.49;45.85;101171.31;5020165;28;20140;-85
2021/07/18 05:30:13;;;;;;;6.13;2.58;;;;;;;28.50;45.29;101178.38;5013195;28;20049;-86
2021/07/18 05:32:40;;;;;;;3.97;2.47;;;;;;;28.65;44.85;101183.75;5004890;28;20493;-80
2021/07/18 05:35:08;;;;;;;3.92;2.10;;;;;;;29.48;43.03;101182.88;5013339;28;20054;-82
2021/07/18 05:37:35;;;;;;;8.13;2.60;;;;;;;29.97;42.68;101181.84;5003897;28;20430;-81
2021/07/18 05:40:05;;;;;;;6.10;2.38;;;;;;;30.71;40.64;101178.25;5026305;28;20087;-81
2021/07/18 05:42:32;;;;;;;4.18;1.98;;;;;;;30.44;40.64;101190.09;5000283;28;20045;-82
2021/07/18 05:45:00;;;;;;;7.43;2.28;;;;;;;30.34;41.39;101182.34;5018094;28;20063;-82
2021/07/18 05:47:28;;;;;;;2.35;1.70;;;;;;;30.56;40.44;101174.84;4988328;28;20049;-83
2021/07/18 05:49:57;;;;;;;3.80;1.85;;;;;;;30.47;41.53;101186.97;5023012;28;20065;-84
2021/07/18 05:52:26;;;;;;;4.40;2.22;;;;;;;29.91;42.65;101182.66;5017892;28;20148;-83
2021/07/18 05:54:53;;;;;;;9.48;2.38;;;;;;;29.72;42.43;101180.69;5031978;28;20312;-81
2021/07/18 05:57:20;;;;;;;4.03;2.10;;;;;;;30.20;42.02;101183.38;5008694;28;20180;-82
2021/07/18 05:59:51;;;;;;;4.95;2.60;;;;;;;29.79;42.54;101181.56;5025656;28;20042;-82
2021/07/18 06:02:18;;;;;;;5.93;2.15;;;;;;;31.50;39.21;101174.53;5009145;28;20141;-81
2021/07/18 06:04:46;;;;;;;6.25;1.92;;;;;;;31.96;38.42;101180.84;5053286;28;20080;-84
2021/07/18 06:07:13;;;;;;;5.00;2.42;;;;;;;32.27;37.64;101178.16;5025407;28;20277;-83
2021/07/18 06:09:40;;;;;;;4.65;2.00;;;;;;;31.40;38.71;101167.91;4997992;28;20085;-83
2021/07/18 06:12:08;;;;;;;5.80;2.10;;;;;;;31.63;38.83;101181.00;5031067;28;20600;-81
2021/07/18 06:14:37;;;;;;;5.78;2.00;;;;;;;31.63;39.17;101178.28;5035625;28;20332;-83
2021/07/18 06:17:04;;;;;;;6.15;1.98;;;;;;;32.14;37.80;101182.84;4994978;28;20241;-83
2021/07/18 06:19:31;;;;;;;9.20;2.13;;;;;;;33.21;35.47;101184.50;5012974;28;20047;-84
2021/07/18 06:21:59;;;;;;;6.35;2.10;;;;;;;31.46;38.34;101188.78;5033160;28;20053;-82
2021/07/18 06:24:26;;;;;;;6.03;2.10;;;;;;;31.32;39.21;101195.34;5030026;28;20289;-83
2021/07/18 06:26:53;;;;;;;4.55;1.90;;;;;;;30.58;40.65;101193.69;5000547;28;20049;-81
2021/07/18 06:29:21;;;;;;;6.47;2.00;;;;;;;29.52;42.50;101200.41;5022513;28;20539;-84
2021/07/18 06:31:48;;;;;;;7.43;2.08;;;;;;;29.52;42.10;101202.28;5032681;28;20145;-82
2021/07/18 06:34:15;;;;;;;5.25;2.13;;;;;;;30.32;41.59;101210.78;5000478;28;20099;-82
2021/07/18 06:36:43;;;;;;;8.60;1.70;;;;;;;31.19;39.13;101199.72;5015613;28;20329;-82
2021/07/18 06:39:10;;;;;;;4.75;2.10;;;;;;;31.51;38.26;101200.69;5012222;28;20358;-82
2021/07/18 06:41:37;;;;;;;6.57;1.90;;;;;;;31.80;37.67;101194.97;4988277;28;20413;-83
2021/07/18 06:44:04;;;;;;;6.13;2.13;;;;;;;30.27;40.77;101198.66;5019248;28;20045;-82
2021/07/18 06:46:32;;;;;;;7.47;1.92;;;;;;;30.54;39.69;101193.25;5012125;28;20551;-84
2021/07/18 06:48:59;;;;;;;2.65;1.80;;;;;;;30.07;40.69;101197.72;5006833;28;20052;-81
2021/07/18 06:51:26;;;;;;;3.05;1.80;;;;;;;30.41;40.57;101195.97;5005713;28;20050;-82
2021/07/18 06:53:54;;;;;;;7.10;2.15;;;;;;;31.24;38.61;101199.06;5027550;28;20225;-82
2021/07/18 06:56:29;;;;;;;3.53;1.98;;;;;;;31.09;39.04;101206.66;5021445;28;20485;-84
2021/07/18 06:58:57;;;;;;;6.40;1.98;;;;;;;31.71;37.52;101200.66;5014574;28;20473;-83
2021/07/18 07:01:24;;;;;;;4.00;2.00;;;;;;;32.43;36.93;101201.34;5027156;28;20088;-83
2021/07/18 07:03:52;;;;;;;6.78;1.80;;;;;;;33.23;35.13;101193.31;5028615;28;20394;-83
2021/07/18 07:06:19;;;;;;;4.28;2.22;;;;;;;33.51;34.47;101208.38;5005382;28;20484;-83
2021/07/18 07:08:47;;;;;;;5.53;1.80;;;;;;;32.03;36.82;101205.34;5015226;28;20449;-84
2021/07/18 07:11:16;;;;;;;4.22;2.03;;;;;;;32.27;35.82;101207.28;5000924;28;20436;-81
2021/07/18 07:13:43;;;;;;;3.80;1.65;;;;;;;32.68;35.51;101214.97;5037205;28;20491;-82
2021/07/18 07:16:11;;;;;;;2.35;1.50;;;;;;;33.27;34.33;101204.59;5037488;28;20492;-86
2021/07/18 07:18:38;;;;;;;3.15;1.85;;;;;;;32.17;36.17;101210.50;5019153;28;20483;-81
2021/07/18 07:21:05;;;;;;;5.97;1.85;;;;;;;33.12;34.43;101202.22;5036724;28;20057;-81
2021/07/18 07:23:32;;;;;;;5.32;1.83;;;;;;;33.21;34.75;101200.06;5040109;28;20099;-83
2021/07/18 07:26:00;;;;;;;3.28;2.08;;;;;;;33.63;34.04;101202.94;5020037;28;20143;-83
2021/07/18 07:28:27;;;;;;;4.45;1.70;;;;;;;34.33;32.29;101200.56;5008773;28;20152;-82
2021/07/18 07:30:56;;;;;;;3.72;1.60;;;;;;;34.81;32.22;101201.47;5028862;28;20048;-81
2021/07/18 07:33:26;;;;;;;4.28;1.65;;;;;;;33.73;33.30;101198.63;5024076;28;20049;-83
2021/07/18 07:35:53;;;;;;;4.95;2.25;;;;;;;31.77;36.08;101199.78;5040247;28;20049;-81
2021/07/18 07:38:21;;;;;;;7.82;1.85;;;;;;;32.23;35.35;101198.72;5011447;28;20057;-81
2021/07/18 07:40:48;;;;;;;6.45;2.38;;;;;;;34.02;32.70;101204.38;5031347;28;20077;-81
2021/07/18 07:43:15;;;;;;;3.05;1.95;;;;;;;33.02;34.10;101199.19;5029889;28;20136;-83
2021/07/18 07:45:44;;;;;;;3.55;2.40;;;;;;;33.54;33.04;101187.94;5034715;28;20052;-80
2021/07/18 07:48:11;;;;;;;5.03;2.00;;;;;;;32.91;34.04;101187.13;5035944;28;20053;-82
2021/07/18 07:50:38;;;;;;;6.47;2.40;;;;;;;32.80;34.11;101193.28;5005475;28;20128;-82
2021/07/18 07:53:06;;;;;;;4.32;1.77;;;;;;;33.54;32.66;101194.25;5018111;28;20333;-80
2021/07/18 07:55:34;;;;;;;3.83;1.73;;;;;;;34.37;31.14;101200.91;4995980;28;20071;-87
2021/07/18 07:58:03;;;;;;;3.17;1.70;;;;;;;34.98;30.11;101202.47;4988313;28;20049;-81
2021/07/18 08:00:31;;;;;;;5.30;2.05;;;;;;;34.81;30.66;101201.47;5022957;28;20459;-85
2021/07/18 08:02:58;;;;;;;6.30;2.63;;;;;;;33.59;32.18;101194.38;5011048;28;20136;-82
2021/07/18 08:05:25;;;;;;;6.80;2.20;;;;;;;32.88;32.68;101203.91;5024566;28;20121;-85
2021/07/18 08:07:53;;;;;;;5.45;1.95;;;;;;;31.64;34.99;101199.00;4996883;28;20128;-84
2021/07/18 08:10:21;;;;;;;5.90;1.90;;;;;;;33.72;32.24;101188.75;5004398;28;20760;-82
2021/07/18 08:12:50;;;;;;;4.65;2.28;;;;;;;34.18;31.36;101194.66;5019724;28;20059;-82
2021/07/18 08:15:19;;;;;;;5.53;2.17;;;;;;;35.06;30.13;101195.81;5024052;28;20088;-80
2021/07/18 08:17:46;;;;;;;7.82;2.20;;;;;;;34.97;31.35;101203.53;5013583;28;20053;-84
2021/07/18 08:20:17;;;;;;;3.42;1.70;;;;;;;34.15;31.29;101200.63;5014506;28;20517;-81
2021/07/18 08:22:45;;;;;;;4.50;2.30;;;;;;;34.14;31.76;101194.31;5029417;28;20415;-83
2021/07/18 08:25:14;;;;;;;6.93;2.13;;;;;;;34.38;31.25;101202.59;5013562;28;20064;-84
2021/07/18 08:27:42;;;;;;;6.53;2.05;;;;;;;31.91;34.77;101197.84;4990601;28;20076;-84
2021/07/18 08:30:10;;;;;;;4.07;2.05;;;;;;;33.34;32.64;101189.00;5001908;28;20129;-86
2021/07/18 08:32:37;;;;;;;3.22;1.75;;;;;;;31.91;35.02;101197.03;5012473;28;20094;-83
2021/07/18 08:35:06;;;;;;;11.15;2.10;;;;;;;32.09;34.58;101183.50;5005684;28;20071;-83
2021/07/18 08:37:35;;;;;;;3.70;2.00;;;;;;;29.63;39.08;101200.91;5000627;28;20119;-82
2021/07/18 08:40:04;;;;;;;6.35;1.83;;;;;;;29.63;39.51;101188.22;4996350;28;20122;-83
2021/07/18 08:42:33;;;;;;;5.13;2.00;;;;;;;28.20;43.10;101191.22;5001193;28;20067;-83
2021/07/18 08:45:01;;;;;;;5.28;1.77;;;;;;;28.19;42.59;101198.50;4998458;28;20050;-83
2021/07/18 08:47:29;;;;;;;6.25;1.83;;;;;;;27.78;43.58;101187.38;5036328;28;20054;-82
2021/07/18 08:49:56;;;;;;;6.68;2.40;;;;;;;27.88;43.47;101185.22;5032249;28;20075;-83
2021/07/18 08:52:25;;;;;;;5.63;2.05;;;;;;;27.83;44.08;101187.69;5014539;28;20157;-81
2021/07/18 08:54:53;;;;;;;2.25;1.50;;;;;;;26.77;46.19;101184.22;5029811;28;20061;-80
2021/07/18 08:57:23;;;;;;;7.70;2.28;;;;;;;27.26;45.84;101186.47;5011171;28;20137;-82
2021/07/18 08:59:51;;;;;;;5.65;2.05;;;;;;;27.24;46.42;101190.38;5024571;28;20075;-79
2021/07/18 09:02:20;;;;;;;4.40;1.80;;;;;;;26.77;46.40;101176.13;5016651;28;20046;-84
2021/07/18 09:04:47;;;;;;;3.20;2.15;;;;;;;26.10;49.30;101188.59;5042694;28;20116;-82
2021/07/18 09:07:18;;;;;;;8.32;2.00;;;;;;;26.67;47.37;101185.53;5013261;28;20099;-82
2021/07/18 09:09:48;;;;;;;4.40;2.00;;;;;;;26.23;48.07;101188.84;5011096;28;20525;-83
2021/07/18 09:12:17;;;;;;;3.03;2.30;;;;;;;25.92;49.09;101183.47;5010976;28;20065;-82
2021/07/18 09:14:47;;;;;;;5.25;1.98;;;;;;;25.79;50.85;101191.31;5012041;28;20058;-81
2021/07/18 09:17:17;;;;;;;4.43;1.92;;;;;;;25.78;50.86;101187.75;5024887;28;20053;-82
2021/07/18 09:19:47;;;;;;;8.57;2.85;;;;;;;26.00;50.75;101194.22;5013191;28;20237;-84
2021/07/18 09:22:16;;;;;;;8.20;2.10;;;;;;;26.13;49.80;101175.59;5004866;28;20049;-83
2021/07/18 09:24:52;;;;;;;6.93;2.10;;;;;;;25.76;51.10;101179.03;5037621;28;20063;-81
2021/07/18 09:27:19;;;;;;;3.78;1.95;;;;;;;26.07;51.44;101187.09;4980812;28;20050;-80
2021/07/18 09:29:52;;;;;;;6.75;2.45;;;;;;;26.59;49.82;101183.72;5015535;28;20136;-81
2021/07/18 09:32:27;;;;;;;7.75;2.42;;;;;;;26.93;48.91;101182.41;4994304;28;20057;-83
2021/07/18 09:34:57;;;;;;;4.35;2.17;;;;;;;26.28;49.79;101181.06;5002899;28;20453;-78
2021/07/18 09:37:27;;;;;;;9.48;2.30;;;;;;;26.06;50.81;101188.09;4998947;28;20033;-82
2021/07/18 09:40:06;;;;;;;4.40;2.10;;;;;;;26.18;49.33;101178.59;5021508;28;20511;-84
2021/07/18 09:42:53;;;;;;;8.70;2.00;;;;;;;26.37;50.16;101176.44;4980108;28;20111;-84
2021/07/18 09:45:25;;;;;;;4.05;1.70;;;;;;;26.82;48.07;101169.34;5012477;28;20081;-82
2021/07/18 09:48:06;;;;;;;10.23;2.55;;;;;;;26.62;47.99;101167.16;4991126;28;20115;-82
2021/07/18 09:50:42;;;;;;;9.10;1.98;;;;;;;26.23;48.46;101178.91;5015845;28;20117;-81
2021/07/18 09:53:14;;;;;;;3.08;1.40;;;;;;;25.89;48.94;101175.72;4995464;28;20049;-81
2021/07/18 09:56:01;;;;;;;2.67;1.65;;;;;;;26.25;48.29;101174.19;5000336;28;20127;-83
2021/07/18 09:58:29;;;;;;;3.97;1.70;;;;;;;26.09;49.30;101176.97;5030281;28;20138;-82
2021/07/18 10:00:58;;;;;;;2.63;1.48;;;;;;;26.44;49.21;101177.44;5013714;28;20053;-82
2021/07/18 10:03:27;;;;;;;3.53;1.95;;;;;;;26.27;49.58;101173.97;5026471;28;20049;-83
2021/07/18 10:06:07;;;;;;;5.47;2.20;;;;;;;26.80;48.33;101161.44;5010871;28;20048;-83
2021/07/18 10:08:37;;;;;;;6.07;2.15;;;;;;;27.16;47.85;101161.59;5035010;28;20369;-82
2021/07/18 10:11:09;;;;;;;3.47;1.55;;;;;;;26.74;47.72;101162.97;5042552;28;20227;-83
2021/07/18 10:13:38;;;;;;;6.40;1.85;;;;;;;25.44;50.94;101161.06;5013864;28;20049;-80
2021/07/18 10:16:06;;;;;;;4.72;2.10;;;;;;;26.29;50.05;101160.31;5011249;28;20119;-82
2021/07/18 10:18:38;;;;;;;8.50;2.17;;;;;;;26.12;49.13;101160.44;4998679;28;20032;-83
2021/07/18 10:21:07;;;;;;;4.70;1.90;;;;;;;26.13;50.04;101154.00;4992385;28;20037;-82
2021/07/18 10:23:38;;;;;;;9.63;2.60;;;;;;;26.74;48.84;101148.63;5008203;28;20049;-84
2021/07/18 10:26:19;;;;;;;7.10;2.25;;;;;;;26.31;49.97;101150.19;4986281;28;20053;-82
2021/07/18 10:28:48;;;;;;;3.97;1.75;;;;;;;26.92;48.71;101151.81;5007309;28;20504;-83
2021/07/18 10:31:23;;;;;;;6.00;1.80;;;;;;;27.59;47.28;101150.91;5004301;28;20050;-83
2021/07/18 10:33:51;;;;;;;6.75;1.60;;;;;;;27.87;46.21;101144.81;4989199;28;20140;-82
2021/07/18 10:36:21;;;;;;;4.35;1.73;;;;;;;27.58;46.96;101146.53;4985930;28;20053;-85
2021/07/18 10:38:49;;;;;;;5.28;1.55;;;;;;;27.31;47.17;101139.94;5016698;28;20053;-81
2021/07/18 10:41:16;;;;;;;3.55;1.42;;;;;;;27.78;45.90;101141.38;4989839;28;20061;-82
2021/07/18 10:43:50;;;;;;;2.83;1.60;;;;;;;27.57;46.25;101138.63;5004540;28;20061;-82
2021/07/18 10:46:42;;;;;;;4.32;1.73;;;;;;;27.40;47.32;101136.13;5008926;28;20357;-86
2021/07/18 10:49:14;;;;;;;5.55;1.70;;;;;;;27.52;46.67;101147.31;5009185;28;20066;-82
2021/07/18 10:51:42;;;;;;;2.08;1.60;;;;;;;27.00;48.93;101142.81;4989930;28;21152;-83
2021/07/18 10:54:14;;;;;;;7.90;1.58;;;;;;;27.43;47.14;101137.63;5035277;28;20123;-83
2021/07/18 10:56:46;;;;;;;5.72;2.00;;;;;;;27.68;46.36;101141.66;4996178;28;20393;-81
2021/07/18 10:59:32;;;;;;;3.47;1.40;;;;;;;28.25;45.17;101134.59;5005738;28;20137;-82
2021/07/18 11:02:09;;;;;;;4.85;1.50;;;;;;;28.19;45.04;101135.34;5030226;28;20136;-84
2021/07/18 11:04:47;;;;;;;1.95;1.48;;;;;;;27.82;45.62;101133.72;5013230;28;20049;-83
2021/07/18 11:07:19;;;;;;;5.35;1.80;;;;;;;27.91;45.30;101143.41;5027460;28;20085;-84
2021/07/18 11:09:47;;;;;;;3.08;1.45;;;;;;;27.82;45.57;101139.16;5033655;28;20081;-82
2021/07/18 11:12:22;;;;;;;4.38;1.52;;;;;;;28.16;45.10;101142.00;4983720;28;20041;-82
2021/07/18 11:14:49;;;;;;;5.20;2.25;;;;;;;27.99;45.48;101140.59;5015889;28;20041;-85
2021/07/18 11:17:28;;;;;;;4.30;1.38;;;;;;;27.61;45.29;101146.16;5000668;28;20094;-83
2021/07/18 11:20:01;;;;;;;3.47;1.35;;;;;;;27.96;45.94;101138.25;5019771;28;20057;-83
2021/07/18 11:22:58;;;;;;;3.45;1.40;;;;;;;27.84;45.98;101139.81;5004661;28;20045;-84
2021/07/18 11:25:42;;;;;;;3.13;1.92;;;;;;;27.39;46.36;101142.56;4994779;28;20081;-84
2021/07/18 11:28:28;;;;;;;2.90;1.42;;;;;;;26.30;48.35;101134.97;5023848;28;20337;-85
2021/07/18 11:31:10;;;;;;;2.38;1.60;;;;;;;25.89;49.76;101135.28;5013154;28;20112;-85
2021/07/18 11:33:40;;;;;;;4.35;1.60;;;;;;;25.95;49.92;101137.28;5004490;28;20098;-85